createdAt,value
2018-02-05T00:01:13.624Z,0.90
2018-02-05T00:03:41.124Z,0.90
2018-02-05T00:06:08.642Z,0.90
2018-02-05T00:08:36.526Z,0.90
2018-02-05T00:11:04.046Z,0.90
2018-02-05T00:13:31.628Z,0.80
2018-02-05T00:15:59.485Z,0.80
2018-02-05T00:18:27.148Z,0.80
2018-02-05T00:20:54.810Z,0.80
2018-02-05T00:23:22.680Z,0.80
2018-02-05T00:25:50.203Z,0.80
2018-02-05T00:28:17.799Z,0.80
2018-02-05T00:30:45.653Z,0.80
2018-02-05T00:33:13.157Z,0.80
2018-02-05T00:35:40.776Z,0.80
2018-02-05T00:38:08.634Z,0.80
2018-02-05T00:40:36.299Z,0.80
2018-02-05T00:43:03.808Z,0.80
2018-02-05T00:45:31.594Z,0.80
2018-02-05T00:47:59.178Z,0.70
2018-02-05T00:50:26.743Z,0.70
2018-02-05T00:52:54.728Z,0.80
2018-02-05T00:55:22.236Z,0.80
2018-02-05T00:57:49.840Z,0.80
2018-02-05T01:00:17.706Z,0.80
2018-02-05T01:02:45.244Z,0.80
2018-02-05T01:05:13.502Z,0.80
2018-02-05T01:07:41.386Z,0.80
2018-02-05T01:10:08.886Z,0.80
2018-02-05T01:12:36.394Z,0.80
2018-02-05T01:15:05.014Z,0.80
2018-02-05T01:17:32.638Z,0.80
2018-02-05T01:20:00.914Z,0.80
2018-02-05T01:22:29.510Z,0.90
2018-02-05T01:24:57.056Z,0.80
2018-02-05T01:27:24.559Z,0.80
2018-02-05T01:29:52.390Z,0.80
2018-02-05T01:32:19.878Z,0.80
2018-02-05T01:34:47.391Z,0.80
2018-02-05T01:37:15.983Z,0.90
2018-02-05T01:39:43.556Z,0.80
2018-02-05T01:42:11.321Z,0.80
2018-02-05T01:44:39.189Z,0.90
2018-02-05T01:47:06.682Z,0.90
2018-02-05T01:49:34.174Z,0.90
2018-02-05T01:52:02.077Z,0.90
2018-02-05T01:54:29.575Z,0.90
2018-02-05T01:56:57.185Z,0.90
2018-02-05T01:59:25.041Z,0.90
2018-02-05T02:01:53.430Z,0.90
2018-02-05T02:04:20.970Z,0.90
2018-02-05T02:06:49.573Z,0.90
2018-02-05T02:09:17.228Z,0.90
2018-02-05T02:11:44.771Z,0.90
2018-02-05T02:14:13.369Z,1.00
2018-02-05T02:16:40.884Z,1.00
2018-02-05T02:19:08.479Z,1.00
2018-02-05T02:21:36.357Z,1.00
2018-02-05T02:24:03.865Z,0.90
2018-02-05T02:26:31.361Z,1.00
2018-02-05T02:28:59.222Z,1.00
2018-02-05T02:31:26.742Z,1.00
2018-02-05T02:33:54.238Z,1.00
2018-02-05T02:36:22.116Z,1.00
2018-02-05T02:38:49.607Z,0.90
2018-02-05T02:41:17.119Z,1.00
2018-02-05T02:43:45.715Z,1.00
2018-02-05T02:46:13.227Z,1.00
2018-02-05T02:48:40.723Z,1.00
2018-02-05T02:51:09.315Z,1.00
2018-02-05T02:53:36.979Z,1.00
2018-02-05T02:56:04.516Z,1.00
2018-02-05T02:58:33.216Z,0.90
2018-02-05T03:01:01.726Z,1.00
2018-02-05T03:03:29.222Z,1.00
2018-02-05T03:05:57.234Z,1.00
2018-02-05T03:08:24.811Z,1.00
2018-02-05T03:10:52.307Z,1.00
2018-02-05T03:13:20.317Z,0.90
2018-02-05T03:15:47.988Z,1.00
2018-02-05T03:18:15.484Z,0.90
2018-02-05T03:20:43.311Z,1.00
2018-02-05T03:23:10.967Z,1.00
2018-02-05T03:25:38.474Z,1.00
2018-02-05T03:28:06.292Z,1.00
2018-02-05T03:30:33.935Z,1.00
2018-02-05T03:33:01.698Z,1.00
2018-02-05T03:35:30.304Z,0.90
2018-02-05T03:37:57.799Z,0.90
2018-02-05T03:40:25.299Z,1.00
2018-02-05T03:42:53.915Z,1.00
2018-02-05T03:45:21.420Z,0.90
2018-02-05T03:47:49.212Z,1.00
2018-02-05T03:50:17.100Z,1.00
2018-02-05T03:52:44.743Z,0.90
2018-02-05T03:55:12.242Z,1.00
2018-02-05T03:57:40.062Z,1.00
2018-02-05T04:00:07.559Z,1.00
2018-02-05T04:02:35.046Z,1.00
2018-02-05T04:05:02.935Z,1.00
2018-02-05T04:07:31.193Z,1.00
2018-02-05T04:09:58.785Z,1.00
2018-02-05T04:12:26.654Z,1.00
2018-02-05T04:14:54.146Z,1.00
2018-02-05T04:17:21.634Z,1.10
2018-02-05T04:19:49.418Z,1.00
2018-02-05T04:22:16.928Z,1.00
2018-02-05T04:24:44.443Z,1.00
2018-02-05T04:27:12.354Z,1.00
2018-02-05T04:29:39.964Z,1.00
2018-02-05T04:32:08.349Z,1.00
2018-02-05T04:34:36.150Z,1.00
2018-02-05T04:37:03.652Z,1.00
2018-02-05T04:39:31.149Z,1.00
2018-02-05T04:41:58.951Z,1.00
2018-02-05T04:44:26.551Z,1.00
2018-02-05T04:46:54.063Z,0.90
2018-02-05T04:49:21.887Z,0.90
2018-02-05T04:51:49.393Z,0.90
2018-02-05T04:54:16.992Z,0.90
2018-02-05T04:56:44.955Z,0.90
2018-02-05T04:59:12.512Z,0.90
2018-02-05T05:01:40.899Z,0.90
2018-02-05T05:04:08.398Z,0.90
2018-02-05T05:06:36.320Z,0.90
2018-02-05T05:09:03.818Z,1.00
2018-02-05T05:11:31.438Z,0.90
2018-02-05T05:13:58.980Z,1.00
2018-02-05T05:16:27.402Z,1.00
2018-02-05T05:18:55.243Z,1.00
2018-02-05T05:21:22.763Z,1.00
2018-02-05T05:23:50.280Z,1.00
2018-02-05T05:26:18.241Z,1.00
2018-02-05T05:28:45.790Z,0.90
2018-02-05T05:31:13.277Z,0.90
2018-02-05T05:33:41.200Z,1.00
2018-02-05T05:36:08.700Z,1.00
2018-02-05T05:38:36.199Z,0.90
2018-02-05T05:41:04.795Z,0.90
2018-02-05T05:43:32.476Z,0.90
2018-02-05T05:45:59.980Z,0.90
2018-02-05T05:48:27.800Z,0.90
2018-02-05T05:50:55.304Z,0.90
2018-02-05T05:53:22.896Z,0.90
2018-02-05T05:55:51.446Z,0.80
2018-02-05T05:58:18.980Z,0.80
2018-02-05T06:00:46.491Z,0.80
2018-02-05T06:03:15.042Z,0.70
2018-02-05T06:05:42.564Z,0.70
2018-02-05T06:08:10.211Z,0.60
2018-02-05T06:10:38.092Z,0.60
2018-02-05T06:13:05.707Z,0.60
2018-02-05T06:15:33.166Z,0.60
2018-02-05T06:18:01.226Z,0.50
2018-02-05T06:20:28.826Z,0.40
2018-02-05T06:22:56.395Z,0.40
2018-02-05T06:25:24.255Z,0.30
2018-02-05T06:27:51.759Z,0.40
2018-02-05T06:30:19.375Z,0.40
2018-02-05T06:32:47.245Z,0.40
2018-02-05T06:35:14.904Z,0.40
2018-02-05T06:37:42.422Z,0.30
2018-02-05T06:40:10.320Z,0.30
2018-02-05T06:42:37.835Z,0.30
2018-02-05T06:45:05.343Z,0.30
2018-02-05T06:47:33.171Z,0.30
2018-02-05T06:50:00.875Z,0.30
2018-02-05T06:52:40.814Z,0.30
2018-02-05T06:55:20.175Z,0.30
2018-02-05T06:57:48.016Z,0.20
2018-02-05T07:00:15.558Z,0.20
2018-02-05T07:02:43.825Z,0.20
2018-02-05T07:05:12.414Z,0.20
2018-02-05T07:07:39.911Z,0.10
2018-02-05T07:10:07.421Z,0.20
2018-02-05T07:12:35.212Z,0.10
2018-02-05T07:15:02.718Z,0.20
2018-02-05T07:17:30.220Z,0.20
2018-02-05T07:19:58.814Z,0.20
2018-02-05T07:22:26.311Z,0.20
2018-02-05T07:24:53.815Z,0.20
2018-02-05T07:27:21.707Z,0.20
2018-02-05T07:29:49.224Z,0.20
2018-02-05T07:32:17.503Z,0.20
2018-02-05T07:34:45.495Z,0.20
2018-02-05T07:37:13.767Z,0.20
2018-02-05T07:39:41.439Z,0.20
2018-02-05T07:42:09.291Z,0.20
2018-02-05T07:44:36.977Z,0.20
2018-02-05T07:47:04.516Z,0.20
2018-02-05T07:49:32.405Z,0.30
2018-02-05T07:51:59.912Z,0.40
2018-02-05T07:54:27.417Z,0.40
2018-02-05T07:56:55.470Z,0.50
2018-02-05T07:59:23.018Z,0.40
2018-02-05T08:01:50.560Z,0.40
2018-02-05T08:04:18.572Z,0.50
2018-02-05T08:06:46.063Z,0.50
2018-02-05T08:09:13.562Z,0.50
2018-02-05T08:11:42.150Z,0.50
2018-02-05T08:14:09.655Z,0.50
2018-02-05T08:16:37.160Z,0.50
2018-02-05T08:19:05.745Z,0.60
2018-02-05T08:21:33.289Z,0.60
2018-02-05T08:24:01.694Z,0.70
2018-02-05T08:26:29.528Z,0.70
2018-02-05T08:28:57.032Z,0.70
2018-02-05T08:31:24.537Z,0.70
2018-02-05T08:33:52.449Z,0.80
2018-02-05T08:36:20.134Z,0.70
2018-02-05T08:38:47.667Z,0.80
2018-02-05T08:41:15.530Z,0.90
2018-02-05T08:43:43.182Z,0.90
2018-02-05T08:46:10.857Z,0.90
2018-02-05T08:48:38.806Z,1.00
2018-02-05T08:51:06.303Z,1.00
2018-02-05T08:53:33.827Z,1.00
2018-02-05T08:56:02.414Z,1.00
2018-02-05T08:58:29.908Z,1.00
2018-02-05T09:46:59.884Z,1.50
2018-02-05T09:49:27.383Z,1.60
2018-02-05T09:51:54.979Z,1.50
2018-02-05T09:54:22.765Z,1.60
2018-02-05T09:56:51.029Z,1.60
2018-02-05T09:59:19.295Z,1.70
2018-02-05T10:01:47.905Z,1.70
2018-02-05T10:04:15.480Z,1.70
2018-02-05T10:06:42.977Z,1.70
2018-02-05T10:09:10.731Z,1.70
2018-02-05T10:11:38.340Z,1.70
2018-02-05T10:14:05.851Z,1.70
2018-02-05T10:16:34.131Z,1.70
2018-02-05T10:19:01.669Z,1.70
2018-02-05T10:21:29.487Z,1.70
2018-02-05T10:23:56.983Z,1.70
2018-02-05T10:26:24.492Z,1.70
2018-02-05T10:28:52.774Z,1.70
2018-02-05T10:31:21.079Z,1.70
2018-02-05T10:33:49.058Z,1.70
2018-02-05T10:36:16.559Z,1.70
2018-02-05T10:38:44.068Z,1.70
2018-02-05T10:41:11.589Z,1.70
2018-02-05T10:43:39.870Z,1.70
2018-02-05T10:46:08.474Z,1.80
2018-02-05T10:48:35.978Z,1.80
2018-02-05T10:51:03.494Z,1.80
2018-02-05T10:53:31.011Z,1.80
2018-02-05T10:55:58.503Z,1.80
2018-02-05T10:58:26.475Z,1.90
2018-02-05T11:00:53.972Z,1.90
2018-02-05T11:03:21.470Z,1.80
2018-02-05T11:05:49.733Z,1.90
2018-02-05T11:08:17.438Z,1.80
2018-02-05T11:10:45.238Z,1.70
2018-02-05T11:13:13.511Z,1.90
2018-02-05T11:15:41.022Z,1.90
2018-02-05T11:18:08.558Z,1.90
2018-02-05T11:20:36.077Z,1.90
2018-02-05T11:23:03.908Z,1.90
2018-02-05T11:25:31.423Z,1.90
2018-02-05T11:27:58.932Z,1.90
2018-02-05T11:30:26.442Z,1.90
2018-02-05T11:32:53.941Z,1.90
2018-02-05T11:35:21.707Z,1.90
2018-02-05T11:37:49.214Z,1.90
2018-02-05T11:40:16.706Z,1.80
2018-02-05T11:42:44.268Z,1.80
2018-02-05T11:45:12.518Z,1.90
2018-02-05T11:47:40.330Z,1.90
2018-02-05T11:50:07.821Z,2.00
2018-02-05T11:52:36.097Z,1.90
2018-02-05T11:55:03.630Z,1.90
2018-02-05T11:57:31.139Z,1.90
2018-02-05T11:59:59.002Z,1.90
2018-02-05T12:02:26.504Z,1.80
2018-02-05T12:04:53.996Z,1.90
2018-02-05T12:07:21.515Z,1.90
2018-02-05T12:09:49.084Z,1.90
2018-02-05T12:12:16.806Z,1.90
2018-02-05T12:14:45.092Z,2.00
2018-02-05T12:17:13.342Z,2.00
2018-02-05T12:19:40.868Z,1.90
2018-02-05T12:22:08.490Z,1.90
2018-02-05T12:24:36.355Z,1.90
2018-02-05T12:27:03.892Z,1.90
2018-02-05T12:29:31.494Z,1.90
2018-02-05T12:31:59.004Z,2.00
2018-02-05T12:34:27.284Z,2.10
2018-02-05T12:36:55.109Z,2.00
2018-02-05T12:39:22.603Z,2.10
2018-02-05T12:41:50.113Z,2.00
2018-02-05T12:44:17.617Z,2.10
2018-02-05T12:46:45.102Z,2.10
2018-02-05T12:49:13.670Z,2.10
2018-02-05T12:51:42.061Z,2.10
2018-02-05T12:54:09.555Z,2.10
2018-02-05T12:56:37.050Z,2.10
2018-02-05T12:59:04.551Z,2.10
2018-02-05T13:01:52.371Z,2.10
2018-02-05T13:04:27.407Z,2.10
2018-02-05T13:06:55.265Z,2.00
2018-02-05T13:09:22.761Z,2.00
2018-02-05T13:11:50.293Z,2.00
2018-02-05T13:14:18.249Z,2.00
2018-02-05T13:16:46.517Z,2.00
2018-02-05T13:19:14.768Z,2.00
2018-02-05T13:21:42.575Z,1.90
2018-02-05T13:24:10.082Z,1.90
2018-02-05T13:26:37.623Z,2.00
2018-02-05T13:29:05.126Z,2.00
2018-02-05T13:31:33.382Z,1.80
2018-02-05T13:34:01.199Z,1.80
2018-02-05T13:36:28.687Z,1.80
2018-02-05T13:38:56.201Z,1.80
2018-02-05T13:41:24.499Z,1.70
2018-02-05T13:43:51.984Z,1.70
2018-02-05T13:46:19.760Z,1.70
2018-02-05T13:48:47.265Z,1.70
2018-02-05T13:51:14.852Z,1.80
2018-02-05T13:53:42.376Z,1.80
2018-02-05T13:56:09.939Z,1.80
2018-02-05T13:58:37.799Z,1.80
2018-02-05T14:01:05.332Z,1.80
2018-02-05T14:03:32.821Z,1.80
2018-02-05T14:06:00.351Z,1.80
2018-02-05T14:08:28.627Z,1.80
2018-02-05T14:10:57.235Z,1.70
2018-02-05T14:13:25.496Z,1.70
2018-02-05T14:15:53.757Z,1.70
2018-02-05T14:18:21.258Z,1.70
2018-02-05T14:20:48.752Z,1.70
2018-02-05T14:23:16.528Z,1.70
2018-02-05T14:25:44.035Z,1.70
2018-02-05T14:28:11.579Z,1.70
2018-02-05T14:30:39.843Z,1.70
2018-02-05T14:33:07.516Z,1.70
2018-02-05T14:35:35.398Z,1.70
2018-02-05T14:38:02.935Z,1.70
2018-02-05T14:40:30.420Z,1.70
2018-02-05T14:42:57.921Z,1.70
2018-02-05T14:45:25.411Z,1.70
2018-02-05T14:47:53.992Z,1.70
2018-02-05T14:50:21.585Z,1.60
2018-02-05T14:52:49.100Z,1.70
2018-02-05T14:55:16.604Z,1.60
2018-02-05T14:57:44.119Z,1.50
2018-02-05T15:00:12.668Z,1.60
2018-02-05T15:02:40.189Z,1.60
2018-02-05T15:05:07.685Z,1.60
2018-02-05T15:07:35.199Z,1.60
2018-02-05T15:10:02.729Z,1.60
2018-02-05T15:12:30.608Z,1.50
2018-02-05T15:14:58.105Z,1.60
2018-02-05T15:17:25.590Z,1.60
2018-02-05T15:19:53.091Z,1.60
2018-02-05T15:22:20.583Z,1.60
2018-02-05T15:24:48.352Z,1.60
2018-02-05T15:27:15.843Z,1.60
2018-02-05T15:29:44.115Z,1.60
2018-02-05T15:32:12.431Z,1.50
2018-02-05T15:34:39.923Z,1.50
2018-02-05T15:37:07.714Z,1.50
2018-02-05T15:39:35.983Z,1.60
2018-02-05T15:42:03.483Z,1.60
2018-02-05T15:44:31.011Z,1.50
2018-02-05T15:46:58.506Z,1.60
2018-02-05T15:49:26.271Z,1.50
2018-02-05T15:51:53.753Z,1.60
2018-02-05T15:54:21.267Z,1.40
2018-02-05T15:56:48.779Z,1.40
2018-02-05T15:59:16.271Z,1.40
2018-02-05T16:01:44.815Z,1.30
2018-02-05T16:04:12.320Z,1.30
2018-02-05T16:06:39.829Z,1.30
2018-02-05T16:09:07.323Z,1.30
2018-02-05T16:11:34.869Z,1.30
2018-02-05T16:14:02.797Z,1.30
2018-02-05T16:16:30.300Z,1.30
2018-02-05T16:18:58.566Z,1.30
2018-02-05T16:21:26.065Z,1.30
2018-02-05T16:23:53.583Z,1.30
2018-02-05T16:26:21.372Z,1.30
2018-02-05T16:28:48.875Z,1.30
2018-02-05T16:31:16.489Z,1.20
2018-02-05T16:33:43.990Z,1.20
2018-02-05T16:36:11.506Z,1.20
2018-02-05T16:38:39.475Z,1.20
2018-02-05T16:41:06.966Z,1.20
2018-02-05T16:43:34.496Z,1.10
2018-02-05T16:46:02.063Z,1.10
2018-02-05T16:48:29.572Z,1.10
2018-02-05T16:50:57.377Z,1.10
2018-02-05T16:53:24.911Z,1.10
2018-02-05T16:55:51.050Z,1.10
2018-02-05T16:58:17.950Z,1.10
2018-02-05T17:00:44.099Z,1.00
2018-02-05T17:03:10.615Z,1.00
2018-02-05T17:05:36.748Z,1.00
2018-02-05T17:08:02.928Z,1.00
2018-02-05T17:10:29.093Z,1.00
2018-02-05T17:12:55.204Z,1.00
2018-02-05T17:15:21.765Z,1.00
2018-02-05T17:17:47.888Z,1.00
2018-02-05T17:20:14.017Z,1.00
2018-02-05T17:22:40.123Z,1.00
2018-02-05T17:25:06.236Z,1.00
2018-02-05T17:27:32.689Z,0.90
2018-02-05T17:29:58.814Z,1.00
2018-02-05T17:32:24.941Z,0.90
2018-02-05T17:34:51.066Z,0.90
2018-02-05T17:37:17.206Z,0.90
2018-02-05T17:39:44.461Z,0.80
2018-02-05T17:42:11.326Z,0.90
2018-02-05T17:44:37.437Z,0.80
2018-02-05T17:47:04.349Z,0.80
2018-02-05T17:49:30.497Z,0.80
2018-02-05T17:51:56.903Z,0.80
2018-02-05T17:54:23.029Z,0.80
2018-02-05T17:56:49.189Z,0.70
2018-02-05T17:59:15.321Z,0.70
2018-02-05T18:01:42.223Z,0.70
2018-02-05T18:04:08.778Z,0.70
2018-02-05T18:06:34.908Z,0.70
2018-02-05T18:09:01.060Z,0.60
2018-02-05T18:11:27.186Z,0.60
2018-02-05T18:13:53.358Z,0.50
2018-02-05T18:16:19.823Z,0.40
2018-02-05T18:18:45.934Z,0.40
2018-02-05T18:21:12.060Z,0.40
2018-02-05T18:23:38.208Z,0.30
2018-02-05T18:26:05.083Z,0.20
2018-02-05T18:28:31.209Z,0.20
2018-02-05T18:30:57.553Z,0.20
2018-02-05T18:33:23.701Z,0.20
2018-02-05T18:35:49.890Z,0.10
2018-02-05T18:38:16.369Z,0.10
2018-02-05T18:40:42.524Z,0.10
2018-02-05T18:43:08.687Z,0.10
2018-02-05T18:45:34.852Z,0.00
2018-02-05T18:48:00.980Z,0.00
2018-02-05T18:50:27.506Z,0.00
2018-02-05T18:52:53.652Z,-0.10
2018-02-05T18:55:20.541Z,-0.10
2018-02-05T18:57:46.693Z,-0.10
2018-02-05T19:00:25.184Z,-0.10
2018-02-05T19:02:51.320Z,-0.20
2018-02-05T19:05:17.479Z,-0.10
2018-02-05T19:07:46.057Z,-0.20
2018-02-05T19:10:12.257Z,-0.30
2018-02-05T19:12:38.508Z,-0.20
2018-02-05T19:15:04.722Z,-0.30
2018-02-05T19:17:30.942Z,-0.30
2018-02-05T19:19:58.009Z,-0.30
2018-02-05T19:22:24.398Z,-0.30
2018-02-05T19:24:50.580Z,-0.30
2018-02-05T19:27:16.770Z,-0.40
2018-02-05T19:29:43.012Z,-0.40
2018-02-05T19:32:10.301Z,-0.40
2018-02-05T19:34:37.249Z,-0.40
2018-02-05T19:37:04.529Z,-0.40
2018-02-05T19:39:30.748Z,-0.40
2018-02-05T19:41:56.920Z,-0.40
2018-02-05T19:44:23.435Z,-0.40
2018-02-05T19:46:49.669Z,-0.50
2018-02-05T19:49:15.895Z,-0.50
2018-02-05T19:51:42.173Z,-0.60
2018-02-05T19:54:08.640Z,-0.60
2018-02-05T19:56:35.372Z,-0.60
2018-02-05T19:59:01.554Z,-0.50
2018-02-05T20:01:28.612Z,-0.60
2018-02-05T20:03:55.609Z,-0.60
2018-02-05T20:06:21.922Z,-0.60
2018-02-05T20:08:48.662Z,-0.60
2018-02-05T20:11:14.908Z,-0.60
2018-02-05T20:13:41.182Z,-0.50
2018-02-05T20:16:09.876Z,-0.60
2018-02-05T20:18:36.104Z,-0.60
2018-02-05T20:21:02.451Z,-0.60
2018-02-05T20:23:29.596Z,-0.60
2018-02-05T20:25:56.720Z,-0.60
2018-02-05T20:28:23.504Z,-0.60
2018-02-05T20:30:49.760Z,-0.60
2018-02-05T20:33:17.057Z,-0.60
2018-02-05T20:35:44.337Z,-0.60
2018-02-05T20:47:55.933Z,-0.60
2018-02-05T20:50:22.140Z,-0.60
2018-02-05T20:52:48.342Z,-0.60
2018-02-05T20:55:14.834Z,-0.60
2018-02-05T20:57:41.124Z,-0.70
2018-02-05T21:00:07.313Z,-0.70
2018-02-05T21:02:33.852Z,-0.80
2018-02-05T21:05:00.038Z,-0.70
2018-02-05T21:07:26.256Z,-0.70
2018-02-05T21:09:52.949Z,-0.70
2018-02-05T21:12:19.180Z,-0.70
2018-02-05T21:14:45.408Z,-0.70
2018-02-05T21:17:12.857Z,-0.70
2018-02-05T21:19:39.067Z,-0.80
2018-02-05T21:22:05.986Z,-0.70
2018-02-05T21:24:32.457Z,-0.80
2018-02-05T21:26:59.346Z,-0.70
2018-02-05T21:29:25.522Z,-0.70
2018-02-05T21:31:51.985Z,-0.60
2018-02-05T21:34:19.099Z,-0.60
2018-02-05T21:36:45.239Z,-0.50
2018-02-05T21:39:11.724Z,-0.60
2018-02-05T21:41:37.859Z,-0.60
2018-02-05T21:44:04.014Z,-0.60
2018-02-05T21:46:31.271Z,-0.60
2018-02-05T21:48:58.228Z,-0.50
2018-02-05T21:51:24.386Z,-0.50
2018-02-05T21:53:50.864Z,-0.50
2018-02-05T21:56:18.355Z,-0.50
2018-02-05T21:58:45.535Z,-0.50
2018-02-05T22:01:12.007Z,-0.50
2018-02-05T22:03:38.168Z,-0.50
2018-02-05T22:06:04.329Z,-0.50
2018-02-05T22:08:30.874Z,-0.40
2018-02-05T22:10:57.071Z,-0.50
2018-02-05T22:13:23.245Z,-0.50
2018-02-05T22:15:50.490Z,-0.50
2018-02-05T22:18:17.371Z,-0.40
2018-02-05T22:20:43.626Z,-0.40
2018-02-05T22:23:10.200Z,-0.50
2018-02-05T22:25:37.095Z,-0.50
2018-02-05T22:28:03.207Z,-0.50
2018-02-05T22:30:29.672Z,-0.50
2018-02-05T22:32:55.833Z,-0.40
2018-02-05T22:35:21.951Z,-0.40
2018-02-05T22:37:48.480Z,-0.50
2018-02-05T22:40:15.364Z,-0.50
2018-02-05T22:42:41.490Z,-0.50
2018-02-05T22:45:07.967Z,-0.50
2018-02-05T22:47:34.071Z,-0.50
2018-02-05T22:50:00.183Z,-0.50
2018-02-05T22:52:26.764Z,-0.50
2018-02-05T22:54:52.885Z,-0.50
2018-02-05T22:57:19.003Z,-0.50
2018-02-05T22:59:45.453Z,-0.50
2018-02-05T23:02:11.587Z,-0.60
2018-02-05T23:04:37.681Z,-0.60
2018-02-05T23:07:04.114Z,-0.60
2018-02-05T23:09:30.223Z,-0.60
2018-02-05T23:11:56.330Z,-0.60
2018-02-05T23:14:22.812Z,-0.60
2018-02-05T23:16:48.945Z,-0.70
2018-02-05T23:19:15.059Z,-0.70
2018-02-05T23:21:41.589Z,-0.70
2018-02-05T23:24:07.710Z,-0.80
2018-02-05T23:26:33.866Z,-0.80
2018-02-05T23:29:01.082Z,-0.80
2018-02-05T23:31:27.204Z,-0.80
2018-02-05T23:33:53.328Z,-0.80
2018-02-05T23:36:19.879Z,-0.80
2018-02-05T23:38:46.046Z,-0.80
2018-02-05T23:41:12.164Z,-0.90
2018-02-05T23:43:39.492Z,-0.90
2018-02-05T23:46:05.638Z,-0.90
2018-02-05T23:48:32.489Z,-0.90
2018-02-05T23:50:59.088Z,-0.90
2018-02-05T23:53:25.204Z,-0.90
2018-02-05T23:55:51.336Z,-1.00
2018-02-05T23:58:17.967Z,-1.00
